Abbeville, Alabama
Current Conditions -  °F | °C
As of 2:53 PM on Friday 19 Dec 2014 (Local Time) from KDHN Reporting Station
Scattered Clouds Scattered Clouds  
Wind Chill: 58°   Ceiling: Unl
Heat Index: 58°   Visibility: 10mi
Dew Point: 37°   Wind: 6mph
Humidity: 46%   Direction: 40°NE
Pressure: 30.11"   Gusts: NA
Location:  31.57°N, 85.25°W
Report Text: KDHN 192053Z 04005KT 10SM SCT120 14/03 A3011 RMK AO2 SLP193 T01440028 56025
Loading
Personal Weather Stations






























Interactive Weather Map New forecast layout! Learn more

10-Day Weather Forecast

Advertisements
Track Severe Weather on mobile